createdAt,value
2023-02-07T00:00:41.906Z,15.03
2023-02-07T00:03:08.856Z,15.67
2023-02-07T00:05:36.876Z,13.53
2023-02-07T00:08:04.784Z,14.47
2023-02-07T00:10:31.536Z,13.70
2023-02-07T00:12:58.940Z,13.93
2023-02-07T00:15:25.749Z,14.43
2023-02-07T00:17:52.425Z,15.50
2023-02-07T00:20:19.313Z,13.77
2023-02-07T00:22:45.957Z,14.43
2023-02-07T00:25:12.895Z,14.00
2023-02-07T00:27:39.586Z,15.30
2023-02-07T00:30:06.837Z,13.80
2023-02-07T00:32:35.104Z,14.20
2023-02-07T00:35:02.037Z,14.57
2023-02-07T00:37:28.721Z,11.80
2023-02-07T00:39:55.358Z,14.63
2023-02-07T00:42:21.960Z,15.40
2023-02-07T00:44:48.628Z,14.17
2023-02-07T00:47:15.230Z,13.80
2023-02-07T00:49:41.881Z,14.00
2023-02-07T00:52:08.459Z,13.70
2023-02-07T00:54:35.645Z,13.07
2023-02-07T00:57:02.288Z,12.03
2023-02-07T00:59:28.906Z,14.03
2023-02-07T01:01:55.549Z,13.17
2023-02-07T01:04:22.205Z,15.13
2023-02-07T01:06:48.874Z,13.27
2023-02-07T01:09:15.593Z,14.10
2023-02-07T01:11:42.220Z,14.20
2023-02-07T01:14:09.219Z,15.20
2023-02-07T01:16:37.086Z,12.83
2023-02-07T01:19:07.486Z,14.07
2023-02-07T01:21:34.706Z,16.67
2023-02-07T01:24:03.259Z,15.53
2023-02-07T01:26:30.006Z,15.27
2023-02-07T01:28:56.689Z,14.47
2023-02-07T01:31:25.624Z,16.63
2023-02-07T01:33:56.856Z,16.57
2023-02-07T01:36:26.163Z,14.50
2023-02-07T01:38:54.157Z,14.77
2023-02-07T01:41:21.772Z,14.43
2023-02-07T01:44:02.242Z,14.73
2023-02-07T01:46:31.339Z,13.63
2023-02-07T01:49:02.495Z,13.97
2023-02-07T01:51:31.807Z,13.17
2023-02-07T01:54:03.269Z,13.80
2023-02-07T01:56:32.169Z,15.00
2023-02-07T01:59:04.411Z,15.70
2023-02-07T02:01:31.144Z,15.97
2023-02-07T02:03:58.482Z,16.00
2023-02-07T02:06:29.238Z,15.20
2023-02-07T02:08:59.409Z,14.60
2023-02-07T02:11:38.212Z,15.80
2023-02-07T02:14:20.089Z,11.80
2023-02-07T02:17:06.248Z,13.33
2023-02-07T02:19:32.795Z,13.83
2023-02-07T02:22:20.521Z,13.20
2023-02-07T02:24:53.235Z,14.50
2023-02-07T02:27:19.828Z,12.00
2023-02-07T02:30:30.653Z,13.80
2023-02-07T02:33:06.729Z,12.83
2023-02-07T02:35:46.475Z,12.90
2023-02-07T02:38:27.035Z,11.90
2023-02-07T02:41:12.658Z,13.07
2023-02-07T02:43:46.537Z,13.20
2023-02-07T02:46:34.765Z,15.67
2023-02-07T02:49:05.002Z,12.73
2023-02-07T02:51:32.785Z,14.83
2023-02-07T02:54:00.679Z,14.77
2023-02-07T02:57:06.401Z,14.60
2023-02-07T02:59:55.430Z,13.80
2023-02-07T03:02:43.386Z,13.80
2023-02-07T03:05:48.649Z,12.43
2023-02-07T03:08:25.827Z,15.40
2023-02-07T03:11:13.208Z,12.97
2023-02-07T03:13:52.022Z,14.27
2023-02-07T03:16:34.574Z,15.03
2023-02-07T03:19:13.412Z,14.33
2023-02-07T03:21:54.641Z,13.27
2023-02-07T03:24:29.216Z,11.77
2023-02-07T03:27:01.042Z,11.73
2023-02-07T03:29:30.859Z,12.70
2023-02-07T03:32:00.683Z,12.20
2023-02-07T03:34:38.022Z,11.43
2023-02-07T03:37:12.970Z,13.27
2023-02-07T03:39:39.721Z,13.13
2023-02-07T03:42:22.284Z,12.90
2023-02-07T03:44:50.825Z,12.90
2023-02-07T03:47:18.628Z,12.70
2023-02-07T03:49:45.751Z,11.70
2023-02-07T03:52:12.336Z,12.60
2023-02-07T03:54:38.946Z,12.07
2023-02-07T03:57:05.585Z,11.80
2023-02-07T03:59:32.292Z,12.93
2023-02-07T04:02:00.508Z,11.50
2023-02-07T04:04:27.196Z,12.77
2023-02-07T04:06:53.885Z,11.67
2023-02-07T04:09:20.869Z,12.70
2023-02-07T04:11:51.653Z,12.00
2023-02-07T04:14:20.241Z,12.50
2023-02-07T04:16:48.321Z,11.60
2023-02-07T04:19:15.483Z,9.63
2023-02-07T04:21:42.448Z,12.17
2023-02-07T04:24:09.356Z,14.00
2023-02-07T04:26:35.988Z,11.70
2023-02-07T04:29:02.644Z,11.20
2023-02-07T04:31:29.415Z,12.03
2023-02-07T04:33:56.055Z,12.80
2023-02-07T04:36:22.952Z,11.10
2023-02-07T04:38:49.857Z,12.60
2023-02-07T04:41:16.910Z,13.67
2023-02-07T04:43:43.573Z,16.40
2023-02-07T04:46:10.308Z,13.20
2023-02-07T04:48:37.861Z,16.47
2023-02-07T04:51:05.790Z,16.17
2023-02-07T04:53:33.009Z,14.07
2023-02-07T04:55:59.627Z,13.23
2023-02-07T04:58:26.772Z,14.00
2023-02-07T05:00:54.438Z,14.93
2023-02-07T05:03:21.501Z,13.87
2023-02-07T05:05:48.207Z,12.93
2023-02-07T05:08:15.003Z,12.77
2023-02-07T05:10:41.818Z,13.13
2023-02-07T05:13:08.509Z,12.97
2023-02-07T05:15:36.095Z,12.43
2023-02-07T05:18:03.088Z,12.30
2023-02-07T05:20:29.701Z,11.03
2023-02-07T05:22:56.398Z,12.17
2023-02-07T05:25:23.301Z,12.53
2023-02-07T05:27:50.023Z,14.07
2023-02-07T05:30:16.915Z,15.63
2023-02-07T05:33:02.082Z,13.33
2023-02-07T05:35:28.982Z,13.73
2023-02-07T05:37:55.612Z,13.70
2023-02-07T05:40:24.267Z,13.30
2023-02-07T05:42:52.388Z,11.53
2023-02-07T05:45:20.054Z,12.93
2023-02-07T05:47:46.683Z,11.70
2023-02-07T05:50:14.202Z,12.70
2023-02-07T05:52:40.910Z,13.27
2023-02-07T05:55:08.179Z,13.83
2023-02-07T05:57:35.321Z,13.03
2023-02-07T06:00:02.257Z,13.20
2023-02-07T06:02:41.741Z,13.60
2023-02-07T06:05:11.202Z,15.60
2023-02-07T06:07:38.161Z,16.97
2023-02-07T06:10:06.027Z,17.80
2023-02-07T06:12:33.707Z,17.67
2023-02-07T06:15:01.000Z,15.67
2023-02-07T06:17:27.781Z,19.93
2023-02-07T06:19:54.493Z,22.97
2023-02-07T06:22:21.119Z,22.77
2023-02-07T06:24:47.767Z,21.83
2023-02-07T06:27:14.382Z,20.07
2023-02-07T06:29:41.022Z,16.90
2023-02-07T06:32:07.700Z,14.20
2023-02-07T06:34:34.382Z,15.03
2023-02-07T06:37:00.957Z,12.57
2023-02-07T06:39:27.565Z,12.23
2023-02-07T06:41:54.143Z,16.50
2023-02-07T06:44:20.767Z,14.70
2023-02-07T06:46:47.499Z,17.03
2023-02-07T06:49:14.174Z,18.90
2023-02-07T06:51:40.759Z,20.60
2023-02-07T06:54:09.920Z,18.70
2023-02-07T06:56:37.649Z,17.50
2023-02-07T06:59:04.759Z,16.07
2023-02-07T07:01:31.867Z,14.90
2023-02-07T07:03:58.681Z,13.60
2023-02-07T07:06:25.280Z,15.53
2023-02-07T07:08:52.057Z,15.83
2023-02-07T07:11:19.304Z,16.77
2023-02-07T07:13:46.862Z,16.10
2023-02-07T07:16:13.821Z,16.93
2023-02-07T07:18:40.666Z,18.87
2023-02-07T07:21:07.976Z,19.67
2023-02-07T07:23:34.605Z,20.40
2023-02-07T07:26:01.376Z,19.20
2023-02-07T07:28:28.027Z,24.07
2023-02-07T07:30:54.677Z,22.83
2023-02-07T07:33:21.295Z,20.00
2023-02-07T07:35:47.894Z,18.83
2023-02-07T07:38:14.625Z,19.57
2023-02-07T07:40:41.327Z,20.00
2023-02-07T07:43:07.980Z,26.67
2023-02-07T07:45:44.157Z,34.97
2023-02-07T07:48:10.793Z,35.40
2023-02-07T07:50:37.747Z,36.30
2023-02-07T07:53:04.765Z,38.57
2023-02-07T07:55:31.308Z,35.23
2023-02-07T07:57:58.010Z,35.30
2023-02-07T08:00:24.656Z,43.57
2023-02-07T08:02:51.596Z,41.47
2023-02-07T08:05:18.391Z,42.50
2023-02-07T08:07:45.051Z,35.20
2023-02-07T08:10:11.664Z,35.07
2023-02-07T08:12:38.340Z,31.40
2023-02-07T08:15:07.718Z,23.43
2023-02-07T08:17:34.346Z,24.07
2023-02-07T08:20:00.934Z,24.73
2023-02-07T08:22:27.725Z,20.23
2023-02-07T08:24:54.366Z,18.00
2023-02-07T08:27:20.967Z,17.70
2023-02-07T08:29:47.579Z,20.53
2023-02-07T08:32:14.451Z,20.17
2023-02-07T08:34:41.054Z,18.93
2023-02-07T08:37:08.982Z,17.47
2023-02-07T08:39:36.022Z,21.10
2023-02-07T08:42:05.281Z,17.33
2023-02-07T08:44:32.391Z,17.67
2023-02-07T08:46:59.070Z,19.07
2023-02-07T08:49:25.961Z,18.23
2023-02-07T08:51:52.865Z,17.50
2023-02-07T08:54:19.781Z,16.67
2023-02-07T08:56:46.420Z,17.63
2023-02-07T08:59:12.997Z,17.00
2023-02-07T09:01:39.932Z,21.47
2023-02-07T09:04:06.567Z,19.57
2023-02-07T09:06:33.336Z,19.90
2023-02-07T09:08:59.924Z,19.87
2023-02-07T09:11:26.777Z,19.97
2023-02-07T09:13:53.457Z,21.87
2023-02-07T09:16:20.207Z,20.10
2023-02-07T09:18:46.950Z,21.13
2023-02-07T09:21:13.823Z,20.30
2023-02-07T09:23:40.601Z,19.30
2023-02-07T09:26:09.371Z,56.20
2023-02-07T09:28:36.217Z,40.90
2023-02-07T09:31:08.935Z,24.97
2023-02-07T09:33:35.697Z,24.10
2023-02-07T09:36:02.517Z,18.67
2023-02-07T09:38:29.340Z,21.20
2023-02-07T09:40:57.877Z,20.53
2023-02-07T09:43:55.922Z,19.97
2023-02-07T09:46:32.350Z,20.17
2023-02-07T09:49:33.428Z,21.00
2023-02-07T09:52:01.952Z,17.70
2023-02-07T09:54:37.315Z,19.90
2023-02-07T09:57:08.419Z,19.23
2023-02-07T09:59:43.030Z,17.27
2023-02-07T10:02:41.764Z,16.00
2023-02-07T10:05:20.632Z,19.03
2023-02-07T10:07:48.886Z,19.37
2023-02-07T10:10:33.947Z,14.53
2023-02-07T10:13:35.745Z,11.73
2023-02-07T10:16:36.301Z,13.17
2023-02-07T10:19:19.283Z,12.73
2023-02-07T10:22:23.193Z,12.33
2023-02-07T10:25:05.016Z,12.97
2023-02-07T10:27:48.371Z,11.80
2023-02-07T10:30:27.052Z,13.30
2023-02-07T10:32:59.997Z,12.07
2023-02-07T10:35:36.457Z,12.90
2023-02-07T10:38:04.643Z,11.80
2023-02-07T10:40:41.512Z,11.70
2023-02-07T10:43:21.306Z,11.87
2023-02-07T10:45:51.913Z,12.67
2023-02-07T10:48:21.001Z,12.17
2023-02-07T10:50:48.269Z,10.50
2023-02-07T10:53:54.942Z,9.87
2023-02-07T10:56:24.528Z,10.60
2023-02-07T10:58:51.404Z,11.20
2023-02-07T11:01:21.340Z,9.07
2023-02-07T11:03:48.719Z,10.40
2023-02-07T11:06:24.099Z,9.20
2023-02-07T11:08:50.931Z,9.53
2023-02-07T11:11:32.742Z,9.00
2023-02-07T11:14:04.925Z,9.00
2023-02-07T11:16:31.707Z,8.00
2023-02-07T11:19:00.783Z,8.07
2023-02-07T11:21:33.576Z,9.13
2023-02-07T11:24:12.391Z,7.87
2023-02-07T11:27:09.925Z,7.30
2023-02-07T11:29:58.593Z,6.60
2023-02-07T11:32:27.420Z,7.20
2023-02-07T11:35:05.839Z,6.77
2023-02-07T11:37:38.030Z,6.17
2023-02-07T11:40:39.631Z,8.10
2023-02-07T11:43:09.728Z,7.33
2023-02-07T11:45:41.108Z,7.03
2023-02-07T11:48:17.221Z,6.17
2023-02-07T11:50:47.550Z,6.93
2023-02-07T11:53:24.547Z,8.47
2023-02-07T11:55:54.550Z,7.50
2023-02-07T11:58:23.801Z,7.27
2023-02-07T12:00:50.800Z,7.73
2023-02-07T12:03:22.641Z,7.50
2023-02-07T12:05:53.470Z,6.90
2023-02-07T12:08:24.261Z,6.33
2023-02-07T12:11:36.167Z,6.97
2023-02-07T12:14:28.420Z,7.23
2023-02-07T12:16:58.940Z,7.63
2023-02-07T12:19:34.065Z,8.63
2023-02-07T12:22:06.845Z,7.80
2023-02-07T12:24:45.341Z,6.30
2023-02-07T12:27:16.717Z,9.60
2023-02-07T12:29:46.406Z,8.10
2023-02-07T12:32:36.904Z,9.07
2023-02-07T12:35:34.868Z,7.40
2023-02-07T12:38:25.644Z,8.20
2023-02-07T12:41:14.918Z,9.07
2023-02-07T12:43:55.913Z,7.33
2023-02-07T12:46:39.146Z,8.20
2023-02-07T12:49:23.480Z,9.70
2023-02-07T12:52:15.983Z,8.90
2023-02-07T12:55:04.313Z,7.77
2023-02-07T12:57:43.074Z,6.80
2023-02-07T13:00:26.268Z,7.00
2023-02-07T13:03:23.511Z,8.63
2023-02-07T13:06:05.441Z,8.27
2023-02-07T13:08:53.324Z,8.50
2023-02-07T13:11:32.133Z,7.37
2023-02-07T13:14:39.262Z,7.27
2023-02-07T13:17:34.056Z,8.63
2023-02-07T13:20:21.857Z,8.53
2023-02-07T13:23:02.547Z,7.73
2023-02-07T13:25:35.584Z,7.73
2023-02-07T13:28:08.019Z,6.70
2023-02-07T13:30:35.740Z,7.93
2023-02-07T13:33:24.924Z,7.37
2023-02-07T13:35:54.321Z,7.50
2023-02-07T13:38:33.619Z,7.83
2023-02-07T13:41:16.443Z,6.43
2023-02-07T13:47:00.303Z,7.10
2023-02-07T13:49:46.583Z,9.60
2023-02-07T13:52:31.905Z,7.57
2023-02-07T13:55:34.386Z,7.50
2023-02-07T13:58:19.539Z,8.03
2023-02-07T14:00:56.012Z,6.77
2023-02-07T14:03:35.226Z,6.57
2023-02-07T14:06:26.296Z,6.67
2023-02-07T14:09:14.726Z,6.83
2023-02-07T14:11:47.278Z,7.60
2023-02-07T14:14:14.350Z,8.57
2023-02-07T14:16:47.771Z,6.83
2023-02-07T14:19:17.689Z,7.17
2023-02-07T14:21:44.721Z,7.40
2023-02-07T14:24:14.396Z,7.33
2023-02-07T14:26:40.986Z,6.73
2023-02-07T14:29:23.027Z,7.70
2023-02-07T14:31:56.312Z,7.03
2023-02-07T14:34:28.505Z,7.40
2023-02-07T14:36:55.338Z,6.70
2023-02-07T14:39:31.446Z,7.00
2023-02-07T14:42:11.296Z,6.77
2023-02-07T14:44:41.315Z,6.17
2023-02-07T14:47:16.794Z,6.17
2023-02-07T14:49:49.222Z,7.03
2023-02-07T14:52:42.452Z,7.10
2023-02-07T14:55:24.389Z,6.27
2023-02-07T14:57:57.576Z,7.83
2023-02-07T15:00:48.650Z,6.40
2023-02-07T15:03:20.065Z,6.60
2023-02-07T15:05:52.464Z,6.00
2023-02-07T15:08:20.419Z,6.93
2023-02-07T15:10:54.927Z,7.07
2023-02-07T15:13:43.308Z,7.73
2023-02-07T15:16:16.694Z,8.50
2023-02-07T15:18:49.417Z,7.50
2023-02-07T15:21:19.522Z,8.40
2023-02-07T15:23:55.711Z,7.53
2023-02-07T15:26:22.517Z,6.33
2023-02-07T15:28:57.526Z,8.00
2023-02-07T15:31:24.320Z,7.97
2023-02-07T15:33:55.010Z,6.47
2023-02-07T15:36:35.764Z,7.43
2023-02-07T15:39:06.839Z,6.90
2023-02-07T15:41:34.573Z,7.40
2023-02-07T15:44:04.148Z,7.60
2023-02-07T15:46:52.937Z,10.57
2023-02-07T15:49:33.279Z,12.20
2023-02-07T15:52:05.343Z,8.93
2023-02-07T15:54:38.300Z,8.20
2023-02-07T15:57:11.274Z,11.27
2023-02-07T15:59:41.467Z,18.90
2023-02-07T16:02:37.823Z,14.33
2023-02-07T16:05:20.208Z,9.80
2023-02-07T16:07:48.638Z,9.20
2023-02-07T16:10:37.167Z,8.70
2023-02-07T16:13:24.056Z,5.90
2023-02-07T16:15:59.648Z,6.73
2023-02-07T16:18:45.832Z,8.10
2023-02-07T16:21:14.091Z,8.07
2023-02-07T16:23:41.529Z,10.83
2023-02-07T16:26:08.691Z,13.70
2023-02-07T16:28:35.424Z,22.67
2023-02-07T16:31:02.281Z,20.57
2023-02-07T16:33:28.999Z,20.30
2023-02-07T16:35:55.682Z,16.63
2023-02-07T16:38:22.329Z,14.83
2023-02-07T16:40:49.416Z,13.73
2023-02-07T16:43:37.429Z,10.63
2023-02-07T16:46:05.065Z,10.53
2023-02-07T16:48:32.172Z,11.67
2023-02-07T16:50:59.247Z,12.10
2023-02-07T16:53:25.972Z,11.70
2023-02-07T16:55:53.961Z,10.10
2023-02-07T16:58:26.787Z,10.73
2023-02-07T17:00:54.322Z,11.93
2023-02-07T17:03:22.058Z,9.10
2023-02-07T17:05:49.128Z,10.53
2023-02-07T17:08:25.205Z,9.30
2023-02-07T17:10:56.480Z,10.00
2023-02-07T17:13:23.180Z,13.57
2023-02-07T17:15:49.908Z,14.60
2023-02-07T17:18:16.732Z,14.73
2023-02-07T17:20:43.625Z,11.43
2023-02-07T17:23:10.363Z,10.70
2023-02-07T17:25:37.058Z,15.50
2023-02-07T17:28:03.924Z,14.63
2023-02-07T17:30:38.282Z,15.80
2023-02-07T17:33:05.942Z,17.13
2023-02-07T17:35:33.751Z,14.70
2023-02-07T17:38:00.652Z,15.97
2023-02-07T17:40:39.309Z,14.90
2023-02-07T17:43:07.514Z,15.47
2023-02-07T17:45:36.083Z,13.33
2023-02-07T17:48:03.916Z,13.87
2023-02-07T17:50:36.852Z,14.07
2023-02-07T17:53:04.192Z,12.47
2023-02-07T17:55:31.756Z,15.20
2023-02-07T17:57:58.666Z,15.47
2023-02-07T18:00:28.723Z,13.13
2023-02-07T18:02:55.724Z,13.17
2023-02-07T18:05:22.938Z,15.10
2023-02-07T18:07:51.247Z,12.70
2023-02-07T18:10:25.510Z,14.13
2023-02-07T18:12:52.193Z,12.87
2023-02-07T18:15:19.891Z,13.10
2023-02-07T18:17:48.375Z,13.87
2023-02-07T18:20:29.359Z,13.80
2023-02-07T18:22:57.689Z,15.30
2023-02-07T18:25:25.837Z,14.33
2023-02-07T18:27:54.255Z,14.53
2023-02-07T18:30:24.149Z,16.00
2023-02-07T18:32:50.904Z,14.43
2023-02-07T18:35:21.443Z,14.47
2023-02-07T18:37:48.126Z,13.83
2023-02-07T18:40:15.967Z,11.73
2023-02-07T18:42:43.306Z,12.60
2023-02-07T18:45:10.460Z,13.80
2023-02-07T18:47:37.131Z,13.67
2023-02-07T18:50:04.300Z,13.63
2023-02-07T18:52:31.060Z,13.90
2023-02-07T18:54:57.899Z,13.30
2023-02-07T18:57:24.605Z,13.30
2023-02-07T18:59:51.404Z,13.30
2023-02-07T19:02:18.183Z,13.60
2023-02-07T19:04:47.014Z,13.70
2023-02-07T19:07:14.010Z,13.07
2023-02-07T19:09:40.768Z,13.83
2023-02-07T19:12:09.818Z,14.47
2023-02-07T19:14:37.218Z,12.50
2023-02-07T19:17:03.928Z,14.60
2023-02-07T19:19:31.796Z,12.40
2023-02-07T19:21:58.557Z,11.77
2023-02-07T19:24:25.679Z,12.83
2023-02-07T19:26:56.087Z,12.47
2023-02-07T19:29:28.707Z,14.37
2023-02-07T19:32:07.397Z,12.67
2023-02-07T19:34:35.664Z,11.70
2023-02-07T19:37:02.543Z,11.83
2023-02-07T19:39:29.665Z,12.77
2023-02-07T19:41:56.641Z,11.77
2023-02-07T19:44:23.271Z,12.93
2023-02-07T19:46:49.940Z,11.60
2023-02-07T19:49:16.641Z,15.63
2023-02-07T19:51:43.503Z,14.07
2023-02-07T19:54:10.631Z,14.53
2023-02-07T19:56:37.660Z,15.73
2023-02-07T19:59:06.093Z,14.10
2023-02-07T20:01:34.785Z,12.10
2023-02-07T20:04:01.794Z,13.27
2023-02-07T20:06:32.896Z,15.27
2023-02-07T20:09:02.342Z,13.13
2023-02-07T20:11:29.388Z,13.07
2023-02-07T20:14:02.782Z,13.03
2023-02-07T20:16:32.959Z,12.60
2023-02-07T20:18:59.866Z,14.03
2023-02-07T20:21:28.741Z,11.43
2023-02-07T20:23:56.711Z,11.90
2023-02-07T20:26:26.916Z,11.50
2023-02-07T20:28:53.950Z,12.77
2023-02-07T20:31:24.343Z,12.47
2023-02-07T20:33:51.099Z,12.40
2023-02-07T20:36:19.327Z,12.30
2023-02-07T20:38:47.258Z,12.80
2023-02-07T20:41:28.934Z,12.47
2023-02-07T20:44:04.284Z,13.97
2023-02-07T20:46:34.126Z,13.83
2023-02-07T20:49:22.560Z,12.00
2023-02-07T20:51:51.742Z,12.70
2023-02-07T20:54:21.097Z,10.43
2023-02-07T20:56:47.794Z,10.10
2023-02-07T20:59:20.525Z,14.80
2023-02-07T21:01:47.541Z,15.83
2023-02-07T21:04:14.146Z,17.30
2023-02-07T21:06:44.973Z,16.40
2023-02-07T21:09:13.015Z,13.57
2023-02-07T21:11:44.714Z,14.23
2023-02-07T21:14:15.601Z,13.07
2023-02-07T21:16:42.748Z,13.37
2023-02-07T21:19:09.703Z,15.50
2023-02-07T21:21:36.437Z,20.17
2023-02-07T21:24:03.103Z,21.37
2023-02-07T21:26:29.900Z,18.70
2023-02-07T21:29:01.466Z,21.93
2023-02-07T21:31:29.840Z,19.33
2023-02-07T21:33:57.298Z,17.90
2023-02-07T21:36:29.515Z,16.70
2023-02-07T21:38:59.347Z,13.70
2023-02-07T21:41:27.926Z,9.77
2023-02-07T21:43:55.582Z,10.90
2023-02-07T21:46:25.501Z,10.30
2023-02-07T21:48:57.503Z,7.50
2023-02-07T21:51:25.681Z,8.37
2023-02-07T21:53:54.512Z,8.43
2023-02-07T21:56:25.609Z,7.40
2023-02-07T21:58:57.876Z,7.23
2023-02-07T22:01:25.305Z,7.70
2023-02-07T22:03:54.645Z,10.53
2023-02-07T22:06:22.623Z,13.63
2023-02-07T22:09:00.639Z,14.70
2023-02-07T22:11:31.506Z,13.30
2023-02-07T22:13:58.784Z,11.77
2023-02-07T22:16:28.327Z,13.53
2023-02-07T22:18:56.677Z,14.83
2023-02-07T22:21:28.883Z,14.33
2023-02-07T22:23:56.760Z,13.00
2023-02-07T22:26:24.475Z,11.80
2023-02-07T22:28:52.019Z,11.90
2023-02-07T22:31:22.223Z,10.53
2023-02-07T22:33:50.608Z,11.87
2023-02-07T22:36:22.469Z,9.90
2023-02-07T22:38:49.869Z,10.10
2023-02-07T22:41:17.382Z,11.47
2023-02-07T22:43:44.026Z,10.60
2023-02-07T22:46:17.536Z,9.80
2023-02-07T22:48:44.732Z,8.20
2023-02-07T22:51:14.197Z,9.90
2023-02-07T22:53:41.364Z,9.03
2023-02-07T22:56:08.776Z,7.93
2023-02-07T22:58:36.586Z,8.20
2023-02-07T23:01:04.389Z,7.90
2023-02-07T23:03:31.453Z,8.03
2023-02-07T23:05:58.120Z,8.67
2023-02-07T23:08:24.747Z,8.60
2023-02-07T23:10:51.396Z,7.83
2023-02-07T23:13:18.039Z,6.10
2023-02-07T23:15:46.813Z,7.90
2023-02-07T23:18:15.634Z,7.60
2023-02-07T23:20:45.851Z,7.70
2023-02-07T23:23:13.306Z,8.23
2023-02-07T23:25:46.783Z,7.70
2023-02-07T23:28:13.681Z,7.33
2023-02-07T23:30:41.424Z,7.67
2023-02-07T23:33:09.517Z,8.10
2023-02-07T23:35:36.591Z,7.60
2023-02-07T23:38:04.445Z,7.10
2023-02-07T23:40:31.314Z,7.80
2023-02-07T23:42:57.966Z,9.10
2023-02-07T23:45:25.184Z,7.67
2023-02-07T23:47:51.862Z,8.30
2023-02-07T23:50:18.735Z,7.97
2023-02-07T23:52:45.787Z,7.50
2023-02-07T23:55:12.391Z,8.43
2023-02-07T23:57:39.170Z,9.03
